createdAt,value
2018-07-22T00:00:53.155Z,20.76
2018-07-22T00:01:53.029Z,20.72
2018-07-22T00:02:53.168Z,20.64
2018-07-22T00:03:52.991Z,20.65
2018-07-22T00:04:53.081Z,20.69
2018-07-22T00:05:52.951Z,20.61
2018-07-22T00:06:53.095Z,20.68
2018-07-22T00:07:52.914Z,20.68
2018-07-22T00:08:53.008Z,20.62
2018-07-22T00:09:52.873Z,20.62
2018-07-22T00:10:52.925Z,20.59
2018-07-22T00:11:52.833Z,20.61
2018-07-22T00:12:52.933Z,20.59
2018-07-22T00:13:52.794Z,20.59
2018-07-22T00:14:52.846Z,20.58
2018-07-22T00:15:52.759Z,20.61
2018-07-22T00:16:52.860Z,20.59
2018-07-22T00:17:52.716Z,20.43
2018-07-22T00:18:52.772Z,20.41
2018-07-22T00:19:52.679Z,20.41
2018-07-22T00:20:52.785Z,20.46
2018-07-22T00:21:52.639Z,20.34
2018-07-22T00:22:52.699Z,20.43
2018-07-22T00:23:52.598Z,20.47
2018-07-22T00:24:52.711Z,20.42
2018-07-22T00:25:52.559Z,20.34
2018-07-22T00:26:52.625Z,20.31
2018-07-22T00:27:52.527Z,20.28
2018-07-22T00:28:52.638Z,20.33
2018-07-22T00:29:52.487Z,20.30
2018-07-22T00:30:52.652Z,20.28
2018-07-22T00:31:52.442Z,20.30
2018-07-22T00:32:52.563Z,20.30
2018-07-22T00:33:52.403Z,20.25
2018-07-22T00:34:52.475Z,20.24
2018-07-22T00:35:52.364Z,20.23
2018-07-22T00:36:52.490Z,20.18
2018-07-22T00:37:52.327Z,20.20
2018-07-22T00:38:52.406Z,20.20
2018-07-22T00:39:52.289Z,20.18
2018-07-22T00:40:52.417Z,20.18
2018-07-22T00:41:52.244Z,20.21
2018-07-22T00:42:52.327Z,20.15
2018-07-22T00:43:52.210Z,20.13
2018-07-22T00:44:52.344Z,20.16
2018-07-22T00:45:52.165Z,20.13
2018-07-22T00:46:52.257Z,20.16
2018-07-22T00:47:52.126Z,20.09
2018-07-22T00:48:52.270Z,20.09
2018-07-22T00:49:52.089Z,20.12
2018-07-22T00:50:52.188Z,20.03
2018-07-22T00:51:52.046Z,20.12
2018-07-22T00:52:52.200Z,20.06
2018-07-22T00:53:52.010Z,20.09
2018-07-22T00:54:52.106Z,20.15
2018-07-22T00:55:51.965Z,20.09
2018-07-22T00:56:52.121Z,20.09
2018-07-22T00:57:51.931Z,20.05
2018-07-22T00:58:52.033Z,20.03
2018-07-22T00:59:51.903Z,19.98
2018-07-22T01:00:52.046Z,20.05
2018-07-22T01:01:51.847Z,19.94
2018-07-22T01:02:51.957Z,20.03
2018-07-22T01:03:51.810Z,20.00
2018-07-22T01:04:51.976Z,20.00
2018-07-22T01:05:51.773Z,19.90
2018-07-22T01:06:51.887Z,19.97
2018-07-22T01:07:51.725Z,19.93
2018-07-22T01:08:51.901Z,19.90
2018-07-22T01:09:51.690Z,19.94
2018-07-22T01:10:51.817Z,19.91
2018-07-22T01:11:51.647Z,19.88
2018-07-22T01:12:51.724Z,20.00
2018-07-22T01:13:51.610Z,19.94
2018-07-22T01:14:51.637Z,19.94
2018-07-22T01:15:51.567Z,19.84
2018-07-22T01:16:51.651Z,19.79
2018-07-22T01:17:51.526Z,19.79
2018-07-22T01:18:51.560Z,19.78
2018-07-22T01:19:51.490Z,19.76
2018-07-22T01:20:51.575Z,19.73
2018-07-22T01:21:51.446Z,19.78
2018-07-22T01:22:51.485Z,19.83
2018-07-22T01:23:51.403Z,19.84
2018-07-22T01:24:51.502Z,19.83
2018-07-22T01:25:51.368Z,19.83
2018-07-22T01:26:51.413Z,19.79
2018-07-22T01:27:51.320Z,19.76
2018-07-22T01:28:51.461Z,19.76
2018-07-22T01:29:51.289Z,19.75
2018-07-22T01:30:51.339Z,19.75
2018-07-22T01:31:51.244Z,19.65
2018-07-22T01:32:51.360Z,19.65
2018-07-22T01:33:51.210Z,19.66
2018-07-22T01:34:51.263Z,19.68
2018-07-22T01:35:51.164Z,19.61
2018-07-22T01:36:51.279Z,19.65
2018-07-22T01:37:51.126Z,19.54
2018-07-22T01:38:51.197Z,19.54
2018-07-22T01:39:51.085Z,19.51
2018-07-22T01:40:51.211Z,19.57
2018-07-22T01:41:51.049Z,19.54
2018-07-22T01:42:51.123Z,19.53
2018-07-22T01:43:51.003Z,19.51
2018-07-22T01:44:51.136Z,19.50
2018-07-22T01:45:50.969Z,19.50
2018-07-22T01:46:51.048Z,19.38
2018-07-22T01:47:50.923Z,19.42
2018-07-22T01:48:51.062Z,19.39
2018-07-22T01:49:50.878Z,19.36
2018-07-22T01:50:50.973Z,19.38
2018-07-22T01:51:50.844Z,19.33
2018-07-22T01:52:50.886Z,19.33
2018-07-22T01:53:50.798Z,19.25
2018-07-22T01:54:50.898Z,19.29
2018-07-22T01:55:50.766Z,19.25
2018-07-22T01:56:50.810Z,19.23
2018-07-22T01:57:50.717Z,19.28
2018-07-22T01:58:50.824Z,19.18
2018-07-22T01:59:50.692Z,19.25
2018-07-22T02:00:50.736Z,19.18
2018-07-22T02:01:50.640Z,19.24
2018-07-22T02:02:50.748Z,19.20
2018-07-22T02:03:50.606Z,19.23
2018-07-22T02:04:50.660Z,19.15
2018-07-22T02:05:50.564Z,19.20
2018-07-22T02:06:50.672Z,19.28
2018-07-22T02:07:50.530Z,19.28
2018-07-22T02:08:50.589Z,19.18
2018-07-22T02:09:50.490Z,19.18
2018-07-22T02:10:50.601Z,19.14
2018-07-22T02:11:50.429Z,19.05
2018-07-22T02:12:50.510Z,19.10
2018-07-22T02:13:50.393Z,19.02
2018-07-22T02:14:50.525Z,19.01
2018-07-22T02:15:50.359Z,18.94
2018-07-22T02:16:50.434Z,18.84
2018-07-22T02:17:50.312Z,18.94
2018-07-22T02:18:50.450Z,18.91
2018-07-22T02:19:50.275Z,18.87
2018-07-22T02:20:50.408Z,18.87
2018-07-22T02:21:50.230Z,18.80
2018-07-22T02:22:50.380Z,18.76
2018-07-22T02:23:50.188Z,18.70
2018-07-22T02:24:50.289Z,18.76
2018-07-22T02:25:50.149Z,18.65
2018-07-22T02:26:50.303Z,18.65
2018-07-22T02:27:50.107Z,18.68
2018-07-22T02:28:50.216Z,18.59
2018-07-22T02:29:50.066Z,18.80
2018-07-22T02:30:50.231Z,18.73
2018-07-22T02:31:50.024Z,18.68
2018-07-22T02:32:50.142Z,18.79
2018-07-22T02:33:49.983Z,18.72
2018-07-22T02:34:50.156Z,18.76
2018-07-22T02:35:49.944Z,18.74
2018-07-22T02:36:50.065Z,18.68
2018-07-22T02:37:49.900Z,18.74
2018-07-22T02:38:49.979Z,18.73
2018-07-22T02:39:49.858Z,18.70
2018-07-22T02:40:49.994Z,18.65
2018-07-22T02:41:49.820Z,18.55
2018-07-22T02:42:49.906Z,18.49
2018-07-22T02:43:49.774Z,18.40
2018-07-22T02:44:49.917Z,18.46
2018-07-22T02:45:49.733Z,18.50
2018-07-22T02:46:49.833Z,18.52
2018-07-22T02:47:49.693Z,18.49
2018-07-22T02:48:49.845Z,18.46
2018-07-22T02:49:49.650Z,18.47
2018-07-22T02:50:49.759Z,18.39
2018-07-22T02:51:49.608Z,18.40
2018-07-22T02:52:49.773Z,18.34
2018-07-22T02:53:49.566Z,18.33
2018-07-22T02:54:49.685Z,18.31
2018-07-22T02:55:49.525Z,18.28
2018-07-22T02:56:49.699Z,18.39
2018-07-22T02:57:49.482Z,18.31
2018-07-22T02:58:49.610Z,18.33
2018-07-22T02:59:49.442Z,18.33
2018-07-22T03:00:49.627Z,18.22
2018-07-22T03:01:49.405Z,18.18
2018-07-22T03:02:49.538Z,18.17
2018-07-22T03:03:49.358Z,18.22
2018-07-22T03:04:49.550Z,18.18
2018-07-22T03:05:49.316Z,18.18
2018-07-22T03:06:49.360Z,18.18
2018-07-22T03:07:49.271Z,18.15
2018-07-22T03:08:49.374Z,18.15
2018-07-22T03:09:49.232Z,18.12
2018-07-22T03:10:49.285Z,18.15
2018-07-22T03:11:49.190Z,18.19
2018-07-22T03:12:49.200Z,18.19
2018-07-22T03:13:49.147Z,18.19
2018-07-22T03:14:49.214Z,18.21
2018-07-22T03:15:49.107Z,18.18
2018-07-22T03:16:49.127Z,18.13
2018-07-22T03:17:49.062Z,18.18
2018-07-22T03:18:49.138Z,18.12
2018-07-22T03:19:49.018Z,18.07
2018-07-22T03:20:49.053Z,18.09
2018-07-22T03:21:48.978Z,18.15
2018-07-22T03:22:49.065Z,18.02
2018-07-22T03:23:48.939Z,18.10
2018-07-22T03:24:48.976Z,18.09
2018-07-22T03:25:48.891Z,18.06
2018-07-22T03:26:48.992Z,18.09
2018-07-22T03:27:48.853Z,18.10
2018-07-22T03:28:48.901Z,18.13
2018-07-22T03:29:48.802Z,18.12
2018-07-22T03:30:48.916Z,18.13
2018-07-22T03:31:48.768Z,18.07
2018-07-22T03:32:48.830Z,18.07
2018-07-22T03:33:48.727Z,18.06
2018-07-22T03:34:48.840Z,18.04
2018-07-22T03:35:48.680Z,18.10
2018-07-22T03:36:48.756Z,18.07
2018-07-22T03:37:48.636Z,18.13
2018-07-22T03:38:48.672Z,18.04
2018-07-22T03:39:48.596Z,17.99
2018-07-22T03:40:48.681Z,17.91
2018-07-22T03:41:48.552Z,17.92
2018-07-22T03:42:48.592Z,17.92
2018-07-22T03:43:48.511Z,17.97
2018-07-22T03:44:48.606Z,17.94
2018-07-22T03:45:48.468Z,17.94
2018-07-22T03:46:48.518Z,17.94
2018-07-22T03:47:48.423Z,17.99
2018-07-22T03:48:48.533Z,17.91
2018-07-22T03:49:48.380Z,18.04
2018-07-22T03:50:48.453Z,17.94
2018-07-22T03:51:48.346Z,17.92
2018-07-22T03:52:48.458Z,17.97
2018-07-22T03:53:48.299Z,17.92
2018-07-22T03:54:48.371Z,17.95
2018-07-22T03:55:48.252Z,17.97
2018-07-22T03:56:48.384Z,17.94
2018-07-22T03:57:48.218Z,17.84
2018-07-22T03:58:48.299Z,17.88
2018-07-22T03:59:48.171Z,17.82
2018-07-22T04:00:48.311Z,17.85
2018-07-22T04:01:48.128Z,17.94
2018-07-22T04:02:48.227Z,17.81
2018-07-22T04:03:48.083Z,17.81
2018-07-22T04:04:48.134Z,17.84
2018-07-22T04:05:48.040Z,17.85
2018-07-22T04:06:48.149Z,17.85
2018-07-22T04:07:48.004Z,17.91
2018-07-22T04:08:48.062Z,17.79
2018-07-22T04:09:47.956Z,17.82
2018-07-22T04:10:48.074Z,17.76
2018-07-22T04:11:47.913Z,17.78
2018-07-22T04:12:47.985Z,17.69
2018-07-22T04:13:47.871Z,17.73
2018-07-22T04:14:48.002Z,17.81
2018-07-22T04:15:47.829Z,17.78
2018-07-22T04:16:47.912Z,17.73
2018-07-22T04:17:47.784Z,17.70
2018-07-22T04:18:47.927Z,17.73
2018-07-22T04:19:47.741Z,17.81
2018-07-22T04:20:47.839Z,17.87
2018-07-22T04:21:47.698Z,17.87
2018-07-22T04:22:47.855Z,17.82
2018-07-22T04:23:47.654Z,17.88
2018-07-22T04:24:47.764Z,17.74
2018-07-22T04:25:47.614Z,17.81
2018-07-22T04:26:47.783Z,17.74
2018-07-22T04:27:47.570Z,17.74
2018-07-22T04:28:47.691Z,17.81
2018-07-22T04:29:47.527Z,17.81
2018-07-22T04:30:47.602Z,17.79
2018-07-22T04:31:47.482Z,17.84
2018-07-22T04:32:47.619Z,17.81
2018-07-22T04:33:47.446Z,17.85
2018-07-22T04:34:47.529Z,17.85
2018-07-22T04:35:47.404Z,17.78
2018-07-22T04:36:47.549Z,17.84
2018-07-22T04:37:47.354Z,17.85
2018-07-22T04:38:47.464Z,17.79
2018-07-22T04:39:47.313Z,17.84
2018-07-22T04:40:47.505Z,17.88
2018-07-22T04:41:47.270Z,17.85
2018-07-22T04:42:47.388Z,17.81
2018-07-22T04:43:47.226Z,17.91
2018-07-22T04:44:47.398Z,17.84
2018-07-22T04:45:47.184Z,17.87
2018-07-22T04:46:47.310Z,17.81
2018-07-22T04:47:47.139Z,17.85
2018-07-22T04:48:47.336Z,17.79
2018-07-22T04:49:47.100Z,17.74
2018-07-22T04:50:47.238Z,17.85
2018-07-22T04:51:47.057Z,17.85
2018-07-22T04:52:47.252Z,17.81
2018-07-22T04:53:47.012Z,17.84
2018-07-22T04:54:47.166Z,17.85
2018-07-22T04:55:46.970Z,17.82
2018-07-22T04:56:47.075Z,17.82
2018-07-22T04:57:46.935Z,17.85
2018-07-22T04:58:47.089Z,17.81
2018-07-22T04:59:46.885Z,17.88
2018-07-22T05:00:46.896Z,17.89
2018-07-22T05:01:46.845Z,17.91
2018-07-22T05:02:46.913Z,18.03
2018-07-22T05:03:46.798Z,17.97
2018-07-22T05:04:46.827Z,17.99
2018-07-22T05:05:46.754Z,17.95
2018-07-22T05:06:46.842Z,17.97
2018-07-22T05:07:46.709Z,17.92
2018-07-22T05:08:46.753Z,17.95
2018-07-22T05:09:46.668Z,18.02
2018-07-22T05:10:46.767Z,18.10
2018-07-22T05:11:46.625Z,18.15
2018-07-22T05:12:46.678Z,18.09
2018-07-22T05:13:46.588Z,18.15
2018-07-22T05:14:46.706Z,18.19
2018-07-22T05:15:46.541Z,18.19
2018-07-22T05:16:46.600Z,18.21
2018-07-22T05:17:46.498Z,18.22
2018-07-22T05:18:46.613Z,18.22
2018-07-22T05:19:46.456Z,18.21
2018-07-22T05:20:46.535Z,18.25
2018-07-22T05:21:46.413Z,18.17
2018-07-22T05:22:46.433Z,18.25
2018-07-22T05:23:46.369Z,18.25
2018-07-22T05:24:46.458Z,18.17
2018-07-22T05:25:46.329Z,18.24
2018-07-22T05:26:46.369Z,18.28
2018-07-22T05:27:46.285Z,18.29
2018-07-22T05:28:46.382Z,18.27
2018-07-22T05:29:46.243Z,18.29
2018-07-22T05:30:46.287Z,18.29
2018-07-22T05:31:46.200Z,18.27
2018-07-22T05:32:46.305Z,18.34
2018-07-22T05:33:46.158Z,18.31
2018-07-22T05:34:46.218Z,18.37
2018-07-22T05:35:46.122Z,18.31
2018-07-22T05:36:46.232Z,18.43
2018-07-22T05:37:46.072Z,18.47
2018-07-22T05:38:46.186Z,18.43
2018-07-22T05:39:46.045Z,18.47
2018-07-22T05:40:46.152Z,18.61
2018-07-22T05:41:45.984Z,18.55
2018-07-22T05:42:46.068Z,18.62
2018-07-22T05:43:45.945Z,18.67
2018-07-22T05:44:46.083Z,18.65
2018-07-22T05:45:45.901Z,18.68
2018-07-22T05:46:45.995Z,18.70
2018-07-22T05:47:45.857Z,18.74
2018-07-22T05:48:45.910Z,18.74
2018-07-22T05:49:45.815Z,18.80
2018-07-22T05:50:45.920Z,18.82
2018-07-22T05:51:45.774Z,18.91
2018-07-22T05:52:45.836Z,18.92
2018-07-22T05:53:45.736Z,18.98
2018-07-22T05:54:45.744Z,19.01
2018-07-22T05:55:45.688Z,19.10
2018-07-22T05:56:45.701Z,19.18
2018-07-22T05:57:45.649Z,19.15
2018-07-22T05:58:45.772Z,19.10
2018-07-22T05:59:45.608Z,19.15
2018-07-22T06:00:45.596Z,19.20
2018-07-22T06:01:45.563Z,19.28
2018-07-22T06:02:45.700Z,19.28
2018-07-22T06:03:45.522Z,19.23
2018-07-22T06:04:45.610Z,19.35
2018-07-22T06:05:45.479Z,19.33
2018-07-22T06:06:45.624Z,19.33
2018-07-22T06:07:45.437Z,19.38
2018-07-22T06:08:45.535Z,19.42
2018-07-22T06:09:45.396Z,19.43
2018-07-22T06:10:45.552Z,19.38
2018-07-22T06:11:45.401Z,19.42
2018-07-22T06:12:45.484Z,19.50
2018-07-22T06:13:45.312Z,19.46
2018-07-22T06:14:45.477Z,19.53
2018-07-22T06:15:45.273Z,19.51
2018-07-22T06:16:45.444Z,19.61
2018-07-22T06:17:45.227Z,19.63
2018-07-22T06:18:45.299Z,19.57
2018-07-22T06:19:45.196Z,19.68
2018-07-22T06:20:45.212Z,19.61
2018-07-22T06:21:45.152Z,19.55
2018-07-22T06:22:45.227Z,19.63
2018-07-22T06:23:45.104Z,19.70
2018-07-22T06:24:45.240Z,19.73
2018-07-22T06:25:45.079Z,19.76
2018-07-22T06:26:45.151Z,19.86
2018-07-22T06:27:45.021Z,19.87
2018-07-22T06:28:45.166Z,19.93
2018-07-22T06:29:44.979Z,19.94
2018-07-22T06:30:45.084Z,19.91
2018-07-22T06:31:44.943Z,19.97
2018-07-22T06:32:45.094Z,19.98
2018-07-22T06:33:44.897Z,20.00
2018-07-22T06:34:45.006Z,20.06
2018-07-22T06:35:44.857Z,20.16
2018-07-22T06:36:45.015Z,20.13
2018-07-22T06:37:44.819Z,20.13
2018-07-22T06:38:44.931Z,20.24
2018-07-22T06:39:44.780Z,20.23
2018-07-22T06:40:44.954Z,20.25
2018-07-22T06:41:44.739Z,20.30
2018-07-22T06:42:44.861Z,20.21
2018-07-22T06:43:44.691Z,20.25
2018-07-22T06:44:44.871Z,20.28
2018-07-22T06:45:44.652Z,20.41
2018-07-22T06:46:44.846Z,20.43
2018-07-22T06:47:44.610Z,20.53
2018-07-22T06:48:44.803Z,20.58
2018-07-22T06:49:44.573Z,20.56
2018-07-22T06:50:44.710Z,20.59
2018-07-22T06:51:44.534Z,20.64
2018-07-22T06:52:44.723Z,20.59
2018-07-22T06:53:44.486Z,20.71
2018-07-22T06:54:44.634Z,20.66
2018-07-22T06:55:44.449Z,20.64
2018-07-22T06:56:44.546Z,20.74
2018-07-22T06:57:44.412Z,20.72
2018-07-22T06:58:44.458Z,20.79
2018-07-22T06:59:44.372Z,20.83
2018-07-22T07:00:44.527Z,20.84
2018-07-22T07:01:44.329Z,20.95
2018-07-22T07:02:44.384Z,20.90
2018-07-22T07:03:44.304Z,20.90
2018-07-22T07:04:44.397Z,21.01
2018-07-22T07:05:44.253Z,21.04
2018-07-22T07:06:44.309Z,21.16
2018-07-22T07:07:44.213Z,21.11
2018-07-22T07:08:44.221Z,21.14
2018-07-22T07:09:44.168Z,21.19
2018-07-22T07:10:44.235Z,21.23
2018-07-22T07:11:44.154Z,21.32
2018-07-22T07:12:44.147Z,21.36
2018-07-22T07:13:44.092Z,21.34
2018-07-22T07:14:44.161Z,21.34
2018-07-22T07:15:44.058Z,21.35
2018-07-22T07:16:44.074Z,21.46
2018-07-22T07:17:44.013Z,21.42
2018-07-22T07:18:44.087Z,21.51
2018-07-22T07:19:43.971Z,21.59
2018-07-22T07:20:44.053Z,21.57
2018-07-22T07:21:43.931Z,21.67
2018-07-22T07:22:44.020Z,21.71
2018-07-22T07:23:43.893Z,21.78
2018-07-22T07:24:43.925Z,21.78
2018-07-22T07:25:43.854Z,21.76
2018-07-22T07:26:43.943Z,21.83
2018-07-22T07:27:43.817Z,21.82
2018-07-22T07:28:43.850Z,21.81
2018-07-22T07:29:43.775Z,21.90
2018-07-22T07:30:43.866Z,21.90
2018-07-22T07:31:43.739Z,22.01
2018-07-22T07:32:43.780Z,22.04
2018-07-22T07:33:43.699Z,21.99
2018-07-22T07:34:43.793Z,22.04
2018-07-22T07:35:43.661Z,22.20
2018-07-22T07:36:43.705Z,22.25
2018-07-22T07:37:43.628Z,22.31
2018-07-22T07:38:43.716Z,22.34
2018-07-22T07:39:43.585Z,22.38
2018-07-22T07:40:43.630Z,22.39
2018-07-22T07:41:43.545Z,22.47
2018-07-22T07:42:43.644Z,22.52
2018-07-22T07:43:43.506Z,22.46
2018-07-22T07:44:43.599Z,22.49
2018-07-22T07:45:43.470Z,22.59
2018-07-22T07:46:43.570Z,22.68
2018-07-22T07:47:43.434Z,22.68
2018-07-22T07:48:43.481Z,22.75
2018-07-22T07:49:43.394Z,22.72
2018-07-22T07:50:43.496Z,22.77
2018-07-22T07:51:43.357Z,22.84
2018-07-22T07:52:43.411Z,22.84
2018-07-22T07:53:43.319Z,22.89
2018-07-22T07:54:43.429Z,22.99
2018-07-22T07:55:43.281Z,23.02
2018-07-22T07:56:43.335Z,23.07
2018-07-22T07:57:43.244Z,23.07
2018-07-22T07:58:43.386Z,23.08
2018-07-22T07:59:43.208Z,23.19
2018-07-22T08:00:43.358Z,23.20
2018-07-22T08:01:43.169Z,23.15
2018-07-22T08:02:43.306Z,23.20
2018-07-22T08:03:43.125Z,23.19
2018-07-22T08:04:43.287Z,23.31
2018-07-22T08:05:43.095Z,23.29
2018-07-22T08:06:43.204Z,23.35
2018-07-22T08:07:43.064Z,23.42
2018-07-22T08:08:43.219Z,23.47
2018-07-22T08:09:43.023Z,23.43
2018-07-22T08:10:43.127Z,23.53
2018-07-22T08:11:43.012Z,23.53
2018-07-22T08:12:43.143Z,23.52
2018-07-22T08:13:42.947Z,23.61
2018-07-22T08:14:43.053Z,23.67
2018-07-22T08:15:42.912Z,23.62
2018-07-22T08:16:43.070Z,23.72
2018-07-22T08:17:42.876Z,23.60
2018-07-22T08:18:42.977Z,23.75
2018-07-22T08:19:42.840Z,23.67
2018-07-22T08:20:42.995Z,23.76
2018-07-22T08:21:42.855Z,23.77
2018-07-22T08:22:42.903Z,23.79
2018-07-22T08:23:42.760Z,23.77
2018-07-22T08:24:42.918Z,23.82
2018-07-22T08:25:42.732Z,23.85
2018-07-22T08:26:42.830Z,23.90
2018-07-22T08:27:42.699Z,24.02
2018-07-22T08:28:42.843Z,24.00
2018-07-22T08:29:42.661Z,24.02
2018-07-22T08:30:42.757Z,23.94
2018-07-22T08:31:42.619Z,24.04
2018-07-22T08:32:42.770Z,24.05
2018-07-22T08:33:42.590Z,24.16
2018-07-22T08:34:42.678Z,24.16
2018-07-22T08:35:42.553Z,24.20
2018-07-22T08:36:42.697Z,24.23
2018-07-22T08:37:42.520Z,24.34
2018-07-22T08:38:42.711Z,24.34
2018-07-22T08:39:42.482Z,24.34
2018-07-22T08:40:42.630Z,24.37
2018-07-22T08:41:42.448Z,24.44
2018-07-22T08:42:42.637Z,24.56
2018-07-22T08:43:42.415Z,24.64
2018-07-22T08:44:42.548Z,24.73
2018-07-22T08:45:42.380Z,24.83
2018-07-22T08:46:42.563Z,25.00
2018-07-22T08:47:42.381Z,25.05
2018-07-22T08:48:42.475Z,25.15
2018-07-22T08:49:42.309Z,25.24
2018-07-22T08:50:42.489Z,25.35
2018-07-22T08:51:42.276Z,25.35
2018-07-22T08:52:42.298Z,25.28
2018-07-22T08:53:42.240Z,25.42
2018-07-22T08:54:42.312Z,25.42
2018-07-22T08:55:42.210Z,25.43
2018-07-22T08:56:42.224Z,25.53
2018-07-22T08:57:42.172Z,25.59
2018-07-22T08:58:42.238Z,25.83
2018-07-22T08:59:42.135Z,25.89
2018-07-22T09:00:42.149Z,25.99
2018-07-22T09:01:42.103Z,26.22
2018-07-22T09:02:42.163Z,26.32
2018-07-22T09:03:42.070Z,26.54
2018-07-22T09:04:42.178Z,26.72
2018-07-22T09:05:42.036Z,26.91
2018-07-22T09:06:42.093Z,27.02
2018-07-22T09:07:42.002Z,27.23
2018-07-22T09:08:42.107Z,27.29
2018-07-22T09:09:41.969Z,27.41
2018-07-22T09:10:42.016Z,27.47
2018-07-22T09:11:41.995Z,27.57
2018-07-22T09:12:42.033Z,27.62
2018-07-22T09:13:41.905Z,27.61
2018-07-22T09:14:41.946Z,27.61
2018-07-22T09:15:41.872Z,27.67
2018-07-22T09:16:41.956Z,27.77
2018-07-22T09:17:41.850Z,27.95
2018-07-22T09:18:41.867Z,28.06
2018-07-22T09:19:41.804Z,27.84
2018-07-22T09:20:41.882Z,27.62
2018-07-22T09:21:41.775Z,27.31
2018-07-22T09:22:41.766Z,27.38
2018-07-22T09:23:41.802Z,27.64
2018-07-22T09:24:41.726Z,27.76
2018-07-22T09:25:41.814Z,27.82
2018-07-22T09:26:41.695Z,27.99
2018-07-22T09:27:41.676Z,28.19
2018-07-22T09:28:41.737Z,28.21
2018-07-22T09:29:41.645Z,28.40
2018-07-22T09:30:41.652Z,28.58
2018-07-22T09:31:41.612Z,28.56
2018-07-22T09:32:41.664Z,28.68
2018-07-22T09:33:41.581Z,28.85
2018-07-22T09:34:41.675Z,29.10
2018-07-22T09:35:41.558Z,29.19
2018-07-22T09:36:41.586Z,29.29
2018-07-22T09:37:41.520Z,29.26
2018-07-22T09:38:41.598Z,29.23
2018-07-22T09:39:41.488Z,29.26
2018-07-22T09:40:41.513Z,29.29
2018-07-22T09:41:41.466Z,29.43
2018-07-22T09:42:41.527Z,29.63
2018-07-22T09:43:41.431Z,29.81
2018-07-22T09:44:41.438Z,29.84
2018-07-22T09:45:41.399Z,29.87
2018-07-22T09:46:42.489Z,29.93
2018-07-22T09:47:41.370Z,29.86
2018-07-22T09:48:41.464Z,29.82
2018-07-22T09:49:41.342Z,29.92
2018-07-22T09:50:41.379Z,29.97
2018-07-22T09:51:41.309Z,30.00
2018-07-22T09:52:41.395Z,29.94
2018-07-22T09:53:41.302Z,29.84
2018-07-22T09:54:41.305Z,29.75
2018-07-22T09:55:41.253Z,29.84
2018-07-22T09:56:41.331Z,29.99
2018-07-22T09:57:41.225Z,30.11
2018-07-22T09:58:41.231Z,30.23
2018-07-22T09:59:41.196Z,30.30
2018-07-22T10:00:41.246Z,30.37
2018-07-22T10:01:41.166Z,30.50
2018-07-22T10:02:42.186Z,30.56
2018-07-22T10:03:41.139Z,30.54
2018-07-22T10:04:41.221Z,30.59
2018-07-22T10:05:41.113Z,30.56
2018-07-22T10:06:41.185Z,30.74
2018-07-22T10:07:41.085Z,30.68
2018-07-22T10:08:41.096Z,30.74
2018-07-22T10:09:41.057Z,30.83
2018-07-22T10:10:41.112Z,30.80
2018-07-22T10:11:41.036Z,30.94
2018-07-22T10:12:41.120Z,30.94
2018-07-22T10:13:41.004Z,31.11
2018-07-22T10:14:41.117Z,31.09
2018-07-22T10:15:40.978Z,30.99
2018-07-22T10:16:41.052Z,31.06
2018-07-22T10:17:40.982Z,31.15
2018-07-22T10:18:40.961Z,31.31
2018-07-22T10:19:40.922Z,31.45
2018-07-22T10:20:40.981Z,31.62
2018-07-22T10:21:40.897Z,31.67
2018-07-22T10:22:40.992Z,31.76
2018-07-22T10:23:40.874Z,31.80
2018-07-22T10:24:40.904Z,31.96
2018-07-22T10:25:40.846Z,32.03
2018-07-22T10:26:40.923Z,32.11
2018-07-22T10:27:40.820Z,32.02
2018-07-22T10:28:40.883Z,31.99
2018-07-22T10:29:40.797Z,32.02
2018-07-22T10:30:40.844Z,32.15
2018-07-22T10:31:40.781Z,32.17
2018-07-22T10:32:40.857Z,32.42
2018-07-22T10:33:40.743Z,32.57
2018-07-22T10:34:40.770Z,32.64
2018-07-22T10:35:40.718Z,32.58
2018-07-22T10:36:40.785Z,32.62
2018-07-22T10:37:40.698Z,32.49
2018-07-22T10:38:40.694Z,32.47
2018-07-22T10:39:40.670Z,32.43
2018-07-22T10:40:40.730Z,32.61
2018-07-22T10:41:40.648Z,32.69
2018-07-22T10:42:40.726Z,32.76
2018-07-22T10:43:40.621Z,32.79
2018-07-22T10:44:40.636Z,32.95
2018-07-22T10:45:40.599Z,33.07
2018-07-22T10:46:40.652Z,33.06
2018-07-22T10:47:40.575Z,32.93
2018-07-22T10:48:40.663Z,32.77
2018-07-22T10:49:40.551Z,32.88
2018-07-22T10:50:40.575Z,33.03
2018-07-22T10:51:40.528Z,33.13
2018-07-22T10:52:40.590Z,33.19
2018-07-22T10:53:40.505Z,33.10
2018-07-22T10:54:40.606Z,32.99
2018-07-22T10:55:40.481Z,33.08
2018-07-22T10:56:40.524Z,33.19
2018-07-22T10:57:40.460Z,33.42
2018-07-22T10:58:40.536Z,33.64
2018-07-22T10:59:40.442Z,33.85
2018-07-22T11:00:40.442Z,33.74
2018-07-22T11:01:40.416Z,33.70
2018-07-22T11:02:40.457Z,33.74
2018-07-22T11:03:40.393Z,33.57
2018-07-22T11:04:40.474Z,33.55
2018-07-22T11:05:40.409Z,33.68
2018-07-22T11:06:40.361Z,33.79
2018-07-22T11:07:40.353Z,33.83
2018-07-22T11:08:40.402Z,33.92
2018-07-22T11:09:40.329Z,33.94
2018-07-22T11:10:40.415Z,33.85
2018-07-22T11:11:40.306Z,33.85
2018-07-22T11:12:40.425Z,33.42
2018-07-22T11:13:40.287Z,33.45
2018-07-22T11:14:40.365Z,33.64
2018-07-22T11:15:40.273Z,33.85
2018-07-22T11:16:40.350Z,34.19
2018-07-22T11:17:40.245Z,34.36
2018-07-22T11:18:40.369Z,33.95
2018-07-22T11:19:40.222Z,33.78
2018-07-22T11:20:40.280Z,33.52
2018-07-22T11:21:40.200Z,33.33
2018-07-22T11:22:40.293Z,33.31
2018-07-22T11:23:40.180Z,33.33
2018-07-22T11:24:40.305Z,33.31
2018-07-22T11:25:40.158Z,33.46
2018-07-22T11:26:40.217Z,33.71
2018-07-22T11:27:40.141Z,33.94
2018-07-22T11:28:40.283Z,33.86
2018-07-22T11:29:40.173Z,34.02
2018-07-22T11:30:40.238Z,34.04
2018-07-22T11:31:40.154Z,33.89
2018-07-22T11:32:40.147Z,33.78
2018-07-22T11:33:40.077Z,33.71
2018-07-22T11:34:40.173Z,33.90
2018-07-22T11:35:40.060Z,34.09
2018-07-22T11:36:40.187Z,34.04
2018-07-22T11:37:40.043Z,33.83
2018-07-22T11:38:40.102Z,33.57
2018-07-22T11:39:40.023Z,33.55
2018-07-22T11:40:40.112Z,33.58
2018-07-22T11:41:39.998Z,33.63
2018-07-22T11:42:40.126Z,33.51
2018-07-22T11:43:39.993Z,33.30
2018-07-22T11:44:40.141Z,33.30
2018-07-22T11:45:39.960Z,33.53
2018-07-22T11:46:40.055Z,33.78
2018-07-22T11:47:39.939Z,34.00
2018-07-22T11:48:40.072Z,34.36
2018-07-22T11:49:39.924Z,34.60
2018-07-22T11:50:40.117Z,34.81
2018-07-22T11:51:39.902Z,34.70
2018-07-22T11:52:39.997Z,34.63
2018-07-22T11:53:40.085Z,34.51
2018-07-22T11:54:39.874Z,34.54
2018-07-22T11:55:39.916Z,34.46
2018-07-22T11:56:39.853Z,34.48
2018-07-22T11:57:39.927Z,34.50
2018-07-22T11:58:39.952Z,34.64
2018-07-22T11:59:39.895Z,34.64
2018-07-22T12:00:39.868Z,34.53
2018-07-22T12:01:39.859Z,34.41
2018-07-22T12:02:40.946Z,34.44
2018-07-22T12:03:39.833Z,34.46
2018-07-22T12:04:39.924Z,34.60
2018-07-22T12:05:39.802Z,34.74
2018-07-22T12:06:39.938Z,34.73
2018-07-22T12:07:39.772Z,34.32
2018-07-22T12:08:39.802Z,34.57
2018-07-22T12:09:39.733Z,34.64
2018-07-22T12:10:39.816Z,34.44
2018-07-22T12:11:39.716Z,34.39
2018-07-22T12:12:39.753Z,34.63
2018-07-22T12:13:39.702Z,34.76
2018-07-22T12:14:39.700Z,34.63
2018-07-22T12:15:39.678Z,34.57
2018-07-22T12:16:39.862Z,34.44
2018-07-22T12:17:39.664Z,34.57
2018-07-22T12:18:39.772Z,34.22
2018-07-22T12:19:39.642Z,34.23
2018-07-22T12:20:39.782Z,34.42
2018-07-22T12:21:39.628Z,34.63
2018-07-22T12:22:39.750Z,34.69
2018-07-22T12:23:39.606Z,34.80
2018-07-22T12:24:39.708Z,34.77
2018-07-22T12:25:39.590Z,34.77
2018-07-22T12:26:39.723Z,34.77
2018-07-22T12:27:39.570Z,34.70
2018-07-22T12:28:39.633Z,34.80
2018-07-22T12:29:39.552Z,34.81
2018-07-22T12:30:39.753Z,34.54
2018-07-22T12:31:39.541Z,34.41
2018-07-22T12:32:39.669Z,34.26
2018-07-22T12:33:39.516Z,33.92
2018-07-22T12:34:40.696Z,33.46
2018-07-22T12:35:39.498Z,33.23
2018-07-22T12:36:39.692Z,33.03
2018-07-22T12:37:39.483Z,32.88
2018-07-22T12:38:39.505Z,32.59
2018-07-22T12:39:39.470Z,32.47
2018-07-22T12:40:39.514Z,32.20
2018-07-22T12:41:39.449Z,32.10
2018-07-22T12:42:39.531Z,32.05
2018-07-22T12:43:39.425Z,32.33
2018-07-22T12:44:39.440Z,32.61
2018-07-22T12:45:39.407Z,32.80
2018-07-22T12:46:39.455Z,33.11
2018-07-22T12:47:39.388Z,33.42
2018-07-22T12:48:39.470Z,33.68
2018-07-22T12:49:39.372Z,33.97
2018-07-22T12:50:39.484Z,33.95
2018-07-22T12:51:39.350Z,33.82
2018-07-22T12:52:39.396Z,33.60